sensor_id;sensor_type;location;lat;lon;timestamp;P1;durP1;ratioP1;P2;durP2;ratioP2
27127;SDS011;14660;49.008;8.390;2023-03-14T00:01:31;0.90;;;0.20;;
27127;SDS011;14660;49.008;8.390;2023-03-14T00:03:58;1.95;;;0.40;;
27127;SDS011;14660;49.008;8.390;2023-03-14T00:06:25;1.38;;;0.57;;
27127;SDS011;14660;49.008;8.390;2023-03-14T00:08:53;0.50;;;0.30;;
27127;SDS011;14660;49.008;8.390;2023-03-14T00:11:21;1.00;;;0.30;;
27127;SDS011;14660;49.008;8.390;2023-03-14T00:13:48;1.05;;;0.45;;
27127;SDS011;14660;49.008;8.390;2023-03-14T00:16:19;4.13;;;0.30;;
27127;SDS011;14660;49.008;8.390;2023-03-14T00:18:46;1.48;;;0.30;;
27127;SDS011;14660;49.008;8.390;2023-03-14T00:21:14;1.95;;;0.32;;
27127;SDS011;14660;49.008;8.390;2023-03-14T00:23:41;0.20;;;0.17;;
27127;SDS011;14660;49.008;8.390;2023-03-14T00:26:09;0.60;;;0.20;;
27127;SDS011;14660;49.008;8.390;2023-03-14T00:28:38;0.43;;;0.20;;
27127;SDS011;14660;49.008;8.390;2023-03-14T00:31:07;1.15;;;0.40;;
27127;SDS011;14660;49.008;8.390;2023-03-14T00:33:35;0.52;;;0.30;;
27127;SDS011;14660;49.008;8.390;2023-03-14T00:36:04;0.45;;;0.20;;
27127;SDS011;14660;49.008;8.390;2023-03-14T00:38:35;1.42;;;0.47;;
27127;SDS011;14660;49.008;8.390;2023-03-14T00:41:06;0.30;;;0.20;;
27127;SDS011;14660;49.008;8.390;2023-03-14T00:43:44;0.63;;;0.38;;
27127;SDS011;14660;49.008;8.390;2023-03-14T00:46:11;0.20;;;0.20;;
27127;SDS011;14660;49.008;8.390;2023-03-14T00:48:39;1.17;;;0.13;;
27127;SDS011;14660;49.008;8.390;2023-03-14T00:51:07;1.48;;;0.60;;
27127;SDS011;14660;49.008;8.390;2023-03-14T00:53:38;0.63;;;0.40;;
27127;SDS011;14660;49.008;8.390;2023-03-14T00:56:05;0.20;;;0.20;;
27127;SDS011;14660;49.008;8.390;2023-03-14T00:58:33;6.43;;;0.60;;
27127;SDS011;14660;49.008;8.390;2023-03-14T01:01:12;0.20;;;0.20;;
27127;SDS011;14660;49.008;8.390;2023-03-14T01:03:41;0.65;;;0.65;;
27127;SDS011;14660;49.008;8.390;2023-03-14T01:06:09;1.45;;;0.40;;
27127;SDS011;14660;49.008;8.390;2023-03-14T01:08:38;0.43;;;0.32;;
27127;SDS011;14660;49.008;8.390;2023-03-14T01:11:08;0.82;;;0.30;;
27127;SDS011;14660;49.008;8.390;2023-03-14T01:16:06;4.25;;;0.22;;
27127;SDS011;14660;49.008;8.390;2023-03-14T01:18:35;1.15;;;1.05;;
27127;SDS011;14660;49.008;8.390;2023-03-14T01:21:24;0.77;;;0.57;;
27127;SDS011;14660;49.008;8.390;2023-03-14T01:23:51;0.32;;;0.20;;
27127;SDS011;14660;49.008;8.390;2023-03-14T01:26:30;0.88;;;0.47;;
27127;SDS011;14660;49.008;8.390;2023-03-14T01:29:01;1.67;;;0.40;;
27127;SDS011;14660;49.008;8.390;2023-03-14T01:31:28;1.95;;;0.50;;
27127;SDS011;14660;49.008;8.390;2023-03-14T01:33:55;0.43;;;0.25;;
27127;SDS011;14660;49.008;8.390;2023-03-14T01:36:21;1.67;;;0.30;;
27127;SDS011;14660;49.008;8.390;2023-03-14T01:38:48;0.60;;;0.20;;
27127;SDS011;14660;49.008;8.390;2023-03-14T01:41:16;1.73;;;0.30;;
27127;SDS011;14660;49.008;8.390;2023-03-14T01:43:44;0.80;;;0.40;;
27127;SDS011;14660;49.008;8.390;2023-03-14T01:54:51;0.95;;;0.35;;
27127;SDS011;14660;49.008;8.390;2023-03-14T01:57:23;0.63;;;0.30;;
27127;SDS011;14660;49.008;8.390;2023-03-14T02:02:46;0.57;;;0.25;;
27127;SDS011;14660;49.008;8.390;2023-03-14T02:05:17;2.03;;;1.20;;
27127;SDS011;14660;49.008;8.390;2023-03-14T02:07:56;2.10;;;0.77;;
27127;SDS011;14660;49.008;8.390;2023-03-14T02:10:29;0.60;;;0.40;;
27127;SDS011;14660;49.008;8.390;2023-03-14T02:13:00;0.70;;;0.38;;
27127;SDS011;14660;49.008;8.390;2023-03-14T02:15:28;2.53;;;1.20;;
27127;SDS011;14660;49.008;8.390;2023-03-14T02:17:56;1.75;;;0.60;;
27127;SDS011;14660;49.008;8.390;2023-03-14T02:23:32;1.00;;;0.50;;
27127;SDS011;14660;49.008;8.390;2023-03-14T02:26:22;1.50;;;0.50;;
27127;SDS011;14660;49.008;8.390;2023-03-14T02:29:12;0.85;;;0.40;;
27127;SDS011;14660;49.008;8.390;2023-03-14T02:31:42;0.93;;;0.40;;
27127;SDS011;14660;49.008;8.390;2023-03-14T02:34:09;0.88;;;0.30;;
27127;SDS011;14660;49.008;8.390;2023-03-14T02:36:39;2.70;;;0.30;;
27127;SDS011;14660;49.008;8.390;2023-03-14T02:39:24;1.63;;;0.40;;
27127;SDS011;14660;49.008;8.390;2023-03-14T02:42:00;2.13;;;0.30;;
27127;SDS011;14660;49.008;8.390;2023-03-14T02:44:25;1.70;;;0.25;;
27127;SDS011;14660;49.008;8.390;2023-03-14T02:46:52;1.48;;;0.60;;
27127;SDS011;14660;49.008;8.390;2023-03-14T02:49:19;0.88;;;0.50;;
27127;SDS011;14660;49.008;8.390;2023-03-14T02:51:47;3.22;;;0.52;;
27127;SDS011;14660;49.008;8.390;2023-03-14T02:54:15;1.83;;;0.40;;
27127;SDS011;14660;49.008;8.390;2023-03-14T02:56:42;0.63;;;0.38;;
27127;SDS011;14660;49.008;8.390;2023-03-14T02:59:08;4.28;;;0.40;;
27127;SDS011;14660;49.008;8.390;2023-03-14T03:01:36;0.75;;;0.32;;
27127;SDS011;14660;49.008;8.390;2023-03-14T03:04:02;1.00;;;0.50;;
27127;SDS011;14660;49.008;8.390;2023-03-14T03:06:30;2.05;;;0.60;;
27127;SDS011;14660;49.008;8.390;2023-03-14T03:08:56;3.05;;;0.88;;
27127;SDS011;14660;49.008;8.390;2023-03-14T03:11:23;1.88;;;0.70;;
27127;SDS011;14660;49.008;8.390;2023-03-14T03:13:50;1.35;;;0.50;;
27127;SDS011;14660;49.008;8.390;2023-03-14T03:16:17;1.55;;;0.60;;
27127;SDS011;14660;49.008;8.390;2023-03-14T03:18:44;4.43;;;1.00;;
27127;SDS011;14660;49.008;8.390;2023-03-14T03:21:10;1.27;;;0.30;;
27127;SDS011;14660;49.008;8.390;2023-03-14T03:23:37;2.15;;;0.50;;
27127;SDS011;14660;49.008;8.390;2023-03-14T03:26:04;0.85;;;0.43;;
27127;SDS011;14660;49.008;8.390;2023-03-14T03:28:32;2.40;;;0.30;;
27127;SDS011;14660;49.008;8.390;2023-03-14T03:30:59;1.05;;;0.50;;
27127;SDS011;14660;49.008;8.390;2023-03-14T03:33:33;1.65;;;0.60;;
27127;SDS011;14660;49.008;8.390;2023-03-14T03:35:59;4.00;;;0.77;;
27127;SDS011;14660;49.008;8.390;2023-03-14T03:38:25;1.75;;;0.25;;
27127;SDS011;14660;49.008;8.390;2023-03-14T03:40:53;1.65;;;0.50;;
27127;SDS011;14660;49.008;8.390;2023-03-14T03:43:20;1.73;;;0.55;;
27127;SDS011;14660;49.008;8.390;2023-03-14T03:45:47;4.00;;;0.50;;
27127;SDS011;14660;49.008;8.390;2023-03-14T03:48:14;2.08;;;0.73;;
27127;SDS011;14660;49.008;8.390;2023-03-14T03:50:47;1.85;;;0.50;;
27127;SDS011;14660;49.008;8.390;2023-03-14T03:55:43;1.48;;;0.40;;
27127;SDS011;14660;49.008;8.390;2023-03-14T03:58:10;1.48;;;0.98;;
27127;SDS011;14660;49.008;8.390;2023-03-14T04:00:37;0.70;;;0.30;;
27127;SDS011;14660;49.008;8.390;2023-03-14T04:03:05;1.83;;;0.50;;
27127;SDS011;14660;49.008;8.390;2023-03-14T04:05:32;3.10;;;1.00;;
27127;SDS011;14660;49.008;8.390;2023-03-14T04:08:01;0.82;;;0.40;;
27127;SDS011;14660;49.008;8.390;2023-03-14T04:10:33;3.50;;;0.50;;
27127;SDS011;14660;49.008;8.390;2023-03-14T04:13:01;2.40;;;0.60;;
27127;SDS011;14660;49.008;8.390;2023-03-14T04:15:28;1.67;;;0.35;;
27127;SDS011;14660;49.008;8.390;2023-03-14T04:17:58;2.17;;;0.52;;
27127;SDS011;14660;49.008;8.390;2023-03-14T04:20:28;3.55;;;0.57;;
27127;SDS011;14660;49.008;8.390;2023-03-14T04:22:54;2.35;;;0.60;;
27127;SDS011;14660;49.008;8.390;2023-03-14T04:25:20;2.25;;;0.90;;
27127;SDS011;14660;49.008;8.390;2023-03-14T04:27:47;4.45;;;0.50;;
27127;SDS011;14660;49.008;8.390;2023-03-14T04:30:14;1.67;;;0.60;;
27127;SDS011;14660;49.008;8.390;2023-03-14T04:32:41;3.25;;;0.60;;
27127;SDS011;14660;49.008;8.390;2023-03-14T04:35:08;3.72;;;0.88;;
27127;SDS011;14660;49.008;8.390;2023-03-14T04:37:35;3.58;;;0.47;;
27127;SDS011;14660;49.008;8.390;2023-03-14T04:40:02;3.28;;;0.60;;
27127;SDS011;14660;49.008;8.390;2023-03-14T04:42:31;2.10;;;0.60;;
27127;SDS011;14660;49.008;8.390;2023-03-14T04:44:59;2.78;;;0.45;;
27127;SDS011;14660;49.008;8.390;2023-03-14T04:47:26;2.22;;;0.47;;
27127;SDS011;14660;49.008;8.390;2023-03-14T04:49:53;3.75;;;0.73;;
27127;SDS011;14660;49.008;8.390;2023-03-14T04:52:19;3.13;;;0.57;;
27127;SDS011;14660;49.008;8.390;2023-03-14T04:54:47;2.53;;;0.60;;
27127;SDS011;14660;49.008;8.390;2023-03-14T04:57:14;3.15;;;0.98;;
27127;SDS011;14660;49.008;8.390;2023-03-14T04:59:41;2.67;;;0.63;;
27127;SDS011;14660;49.008;8.390;2023-03-14T05:02:08;3.42;;;0.47;;
27127;SDS011;14660;49.008;8.390;2023-03-14T05:04:35;0.80;;;0.30;;
27127;SDS011;14660;49.008;8.390;2023-03-14T05:07:02;2.10;;;0.68;;
27127;SDS011;14660;49.008;8.390;2023-03-14T05:09:29;5.07;;;0.98;;
27127;SDS011;14660;49.008;8.390;2023-03-14T05:11:56;3.38;;;0.77;;
27127;SDS011;14660;49.008;8.390;2023-03-14T05:14:21;5.68;;;0.73;;
27127;SDS011;14660;49.008;8.390;2023-03-14T05:16:49;1.60;;;0.40;;
27127;SDS011;14660;49.008;8.390;2023-03-14T05:19:16;2.15;;;1.08;;
27127;SDS011;14660;49.008;8.390;2023-03-14T05:21:42;2.53;;;0.40;;
27127;SDS011;14660;49.008;8.390;2023-03-14T05:24:09;3.60;;;0.52;;
27127;SDS011;14660;49.008;8.390;2023-03-14T05:26:37;1.75;;;0.35;;
27127;SDS011;14660;49.008;8.390;2023-03-14T05:29:04;2.08;;;0.30;;
27127;SDS011;14660;49.008;8.390;2023-03-14T05:31:31;3.13;;;0.40;;
27127;SDS011;14660;49.008;8.390;2023-03-14T05:33:58;1.40;;;0.40;;
27127;SDS011;14660;49.008;8.390;2023-03-14T05:36:25;1.40;;;0.40;;
27127;SDS011;14660;49.008;8.390;2023-03-14T05:38:53;3.53;;;0.90;;
27127;SDS011;14660;49.008;8.390;2023-03-14T05:41:20;6.75;;;0.50;;
27127;SDS011;14660;49.008;8.390;2023-03-14T05:43:47;2.20;;;0.30;;
27127;SDS011;14660;49.008;8.390;2023-03-14T05:46:13;3.15;;;0.40;;
27127;SDS011;14660;49.008;8.390;2023-03-14T05:48:40;4.75;;;0.60;;
27127;SDS011;14660;49.008;8.390;2023-03-14T05:51:07;1.15;;;0.45;;
27127;SDS011;14660;49.008;8.390;2023-03-14T05:53:34;1.55;;;0.40;;
27127;SDS011;14660;49.008;8.390;2023-03-14T05:56:00;0.65;;;0.30;;
27127;SDS011;14660;49.008;8.390;2023-03-14T05:58:27;1.88;;;0.30;;
27127;SDS011;14660;49.008;8.390;2023-03-14T06:00:53;1.33;;;0.30;;
27127;SDS011;14660;49.008;8.390;2023-03-14T06:03:20;2.28;;;0.50;;
27127;SDS011;14660;49.008;8.390;2023-03-14T06:05:49;1.55;;;0.30;;
27127;SDS011;14660;49.008;8.390;2023-03-14T06:08:16;1.88;;;0.30;;
27127;SDS011;14660;49.008;8.390;2023-03-14T06:10:42;1.70;;;0.30;;
27127;SDS011;14660;49.008;8.390;2023-03-14T06:13:10;4.38;;;0.80;;
27127;SDS011;14660;49.008;8.390;2023-03-14T06:15:37;1.23;;;0.40;;
27127;SDS011;14660;49.008;8.390;2023-03-14T06:18:03;1.00;;;0.32;;
27127;SDS011;14660;49.008;8.390;2023-03-14T06:20:30;2.53;;;0.93;;
27127;SDS011;14660;49.008;8.390;2023-03-14T06:23:00;2.03;;;0.40;;
27127;SDS011;14660;49.008;8.390;2023-03-14T06:25:27;1.80;;;0.80;;
27127;SDS011;14660;49.008;8.390;2023-03-14T06:27:54;3.38;;;0.50;;
27127;SDS011;14660;49.008;8.390;2023-03-14T06:30:21;3.40;;;0.82;;
27127;SDS011;14660;49.008;8.390;2023-03-14T06:32:48;2.05;;;0.40;;
27127;SDS011;14660;49.008;8.390;2023-03-14T06:35:15;0.75;;;0.20;;
27127;SDS011;14660;49.008;8.390;2023-03-14T06:37:42;2.40;;;0.60;;
27127;SDS011;14660;49.008;8.390;2023-03-14T06:40:10;0.90;;;0.40;;
27127;SDS011;14660;49.008;8.390;2023-03-14T06:42:40;2.83;;;0.68;;
27127;SDS011;14660;49.008;8.390;2023-03-14T06:45:06;3.08;;;0.70;;
27127;SDS011;14660;49.008;8.390;2023-03-14T06:47:35;2.15;;;0.38;;
27127;SDS011;14660;49.008;8.390;2023-03-14T06:50:02;3.40;;;0.98;;
27127;SDS011;14660;49.008;8.390;2023-03-14T06:52:31;0.28;;;0.10;;
27127;SDS011;14660;49.008;8.390;2023-03-14T06:54:57;2.03;;;0.65;;
27127;SDS011;14660;49.008;8.390;2023-03-14T06:57:24;3.13;;;0.40;;
27127;SDS011;14660;49.008;8.390;2023-03-14T06:59:51;2.67;;;0.50;;
27127;SDS011;14660;49.008;8.390;2023-03-14T07:02:18;1.20;;;0.30;;
27127;SDS011;14660;49.008;8.390;2023-03-14T07:04:46;1.10;;;0.43;;
27127;SDS011;14660;49.008;8.390;2023-03-14T07:07:13;1.63;;;0.63;;
27127;SDS011;14660;49.008;8.390;2023-03-14T07:09:40;1.27;;;0.40;;
27127;SDS011;14660;49.008;8.390;2023-03-14T07:12:07;0.77;;;0.40;;
27127;SDS011;14660;49.008;8.390;2023-03-14T07:14:33;1.88;;;0.30;;
27127;SDS011;14660;49.008;8.390;2023-03-14T07:17:00;1.00;;;0.30;;
27127;SDS011;14660;49.008;8.390;2023-03-14T07:19:27;1.25;;;0.40;;
27127;SDS011;14660;49.008;8.390;2023-03-14T07:21:54;0.95;;;0.35;;
27127;SDS011;14660;49.008;8.390;2023-03-14T07:24:21;0.30;;;0.10;;
27127;SDS011;14660;49.008;8.390;2023-03-14T07:26:48;0.50;;;0.20;;
27127;SDS011;14660;49.008;8.390;2023-03-14T07:29:16;1.65;;;0.30;;
27127;SDS011;14660;49.008;8.390;2023-03-14T07:31:43;2.40;;;0.50;;
27127;SDS011;14660;49.008;8.390;2023-03-14T07:34:10;0.93;;;0.30;;
27127;SDS011;14660;49.008;8.390;2023-03-14T07:36:37;0.50;;;0.20;;
27127;SDS011;14660;49.008;8.390;2023-03-14T07:39:03;3.60;;;0.70;;
27127;SDS011;14660;49.008;8.390;2023-03-14T07:41:30;2.92;;;0.47;;
27127;SDS011;14660;49.008;8.390;2023-03-14T07:43:58;2.33;;;0.88;;
27127;SDS011;14660;49.008;8.390;2023-03-14T07:46:24;1.05;;;0.30;;
27127;SDS011;14660;49.008;8.390;2023-03-14T07:48:52;2.38;;;0.30;;
27127;SDS011;14660;49.008;8.390;2023-03-14T07:51:21;1.95;;;0.47;;
27127;SDS011;14660;49.008;8.390;2023-03-14T07:53:49;1.85;;;0.38;;
27127;SDS011;14660;49.008;8.390;2023-03-14T07:56:16;1.48;;;0.28;;
27127;SDS011;14660;49.008;8.390;2023-03-14T07:58:42;1.17;;;0.32;;
27127;SDS011;14660;49.008;8.390;2023-03-14T08:01:09;1.17;;;0.15;;
27127;SDS011;14660;49.008;8.390;2023-03-14T08:03:36;0.70;;;0.20;;
27127;SDS011;14660;49.008;8.390;2023-03-14T08:06:03;0.73;;;0.22;;
27127;SDS011;14660;49.008;8.390;2023-03-14T08:08:28;0.40;;;0.17;;
27127;SDS011;14660;49.008;8.390;2023-03-14T08:11:01;3.30;;;0.40;;
27127;SDS011;14660;49.008;8.390;2023-03-14T08:13:35;0.77;;;0.20;;
27127;SDS011;14660;49.008;8.390;2023-03-14T08:16:03;0.80;;;0.30;;
27127;SDS011;14660;49.008;8.390;2023-03-14T08:18:30;1.63;;;0.40;;
27127;SDS011;14660;49.008;8.390;2023-03-14T08:20:57;2.40;;;0.32;;
27127;SDS011;14660;49.008;8.390;2023-03-14T08:23:24;1.73;;;0.32;;
27127;SDS011;14660;49.008;8.390;2023-03-14T08:25:51;2.75;;;0.47;;
27127;SDS011;14660;49.008;8.390;2023-03-14T08:28:18;3.25;;;0.30;;
27127;SDS011;14660;49.008;8.390;2023-03-14T08:30:44;1.08;;;0.30;;
27127;SDS011;14660;49.008;8.390;2023-03-14T08:33:10;0.75;;;0.35;;
27127;SDS011;14660;49.008;8.390;2023-03-14T08:35:38;0.90;;;0.30;;
27127;SDS011;14660;49.008;8.390;2023-03-14T08:38:06;1.42;;;0.65;;
27127;SDS011;14660;49.008;8.390;2023-03-14T08:40:33;0.60;;;0.20;;
27127;SDS011;14660;49.008;8.390;2023-03-14T08:43:01;0.70;;;0.10;;
27127;SDS011;14660;49.008;8.390;2023-03-14T08:45:29;2.42;;;0.20;;
27127;SDS011;14660;49.008;8.390;2023-03-14T08:47:57;0.50;;;0.20;;
27127;SDS011;14660;49.008;8.390;2023-03-14T08:50:24;0.52;;;0.28;;
27127;SDS011;14660;49.008;8.390;2023-03-14T08:52:51;0.65;;;0.20;;
27127;SDS011;14660;49.008;8.390;2023-03-14T08:55:18;0.50;;;0.10;;
27127;SDS011;14660;49.008;8.390;2023-03-14T08:57:45;0.60;;;0.25;;
27127;SDS011;14660;49.008;8.390;2023-03-14T09:00:12;1.45;;;0.15;;
27127;SDS011;14660;49.008;8.390;2023-03-14T09:02:41;0.50;;;0.10;;
27127;SDS011;14660;49.008;8.390;2023-03-14T09:05:08;0.55;;;0.20;;
27127;SDS011;14660;49.008;8.390;2023-03-14T09:07:37;0.20;;;0.20;;
27127;SDS011;14660;49.008;8.390;2023-03-14T09:10:06;0.82;;;0.30;;
27127;SDS011;14660;49.008;8.390;2023-03-14T09:12:34;0.38;;;0.20;;
27127;SDS011;14660;49.008;8.390;2023-03-14T09:15:01;2.97;;;0.30;;
27127;SDS011;14660;49.008;8.390;2023-03-14T09:17:28;0.35;;;0.13;;
27127;SDS011;14660;49.008;8.390;2023-03-14T09:19:55;1.95;;;0.52;;
27127;SDS011;14660;49.008;8.390;2023-03-14T09:22:20;0.20;;;0.20;;
27127;SDS011;14660;49.008;8.390;2023-03-14T09:24:49;0.95;;;0.57;;
27127;SDS011;14660;49.008;8.390;2023-03-14T09:27:16;0.60;;;0.30;;
27127;SDS011;14660;49.008;8.390;2023-03-14T09:29:43;2.42;;;0.40;;
27127;SDS011;14660;49.008;8.390;2023-03-14T09:32:09;3.33;;;0.98;;
27127;SDS011;14660;49.008;8.390;2023-03-14T09:34:37;0.70;;;0.35;;
27127;SDS011;14660;49.008;8.390;2023-03-14T09:37:02;0.80;;;0.30;;
27127;SDS011;14660;49.008;8.390;2023-03-14T09:39:30;0.32;;;0.30;;
27127;SDS011;14660;49.008;8.390;2023-03-14T09:41:57;0.50;;;0.20;;
27127;SDS011;14660;49.008;8.390;2023-03-14T09:47:33;1.25;;;0.15;;
27127;SDS011;14660;49.008;8.390;2023-03-14T09:50:00;0.68;;;0.10;;
27127;SDS011;14660;49.008;8.390;2023-03-14T09:52:33;0.00;;;0.00;;
27127;SDS011;14660;49.008;8.390;2023-03-14T09:57:54;1.17;;;0.38;;
27127;SDS011;14660;49.008;8.390;2023-03-14T10:00:25;0.50;;;0.17;;
27127;SDS011;14660;49.008;8.390;2023-03-14T10:02:55;0.45;;;0.20;;
27127;SDS011;14660;49.008;8.390;2023-03-14T10:05:44;1.08;;;0.10;;
27127;SDS011;14660;49.008;8.390;2023-03-14T10:08:12;0.73;;;0.38;;
27127;SDS011;14660;49.008;8.390;2023-03-14T10:10:40;3.97;;;0.73;;
27127;SDS011;14660;49.008;8.390;2023-03-14T10:16:11;0.85;;;0.30;;
27127;SDS011;14660;49.008;8.390;2023-03-14T10:18:43;0.15;;;0.10;;
27127;SDS011;14660;49.008;8.390;2023-03-14T10:24:17;0.98;;;0.20;;
27127;SDS011;14660;49.008;8.390;2023-03-14T10:27:00;0.20;;;0.20;;
27127;SDS011;14660;49.008;8.390;2023-03-14T10:29:29;0.30;;;0.10;;
27127;SDS011;14660;49.008;8.390;2023-03-14T10:32:27;1.50;;;0.20;;
27127;SDS011;14660;49.008;8.390;2023-03-14T10:38:01;0.20;;;0.10;;
27127;SDS011;14660;49.008;8.390;2023-03-14T10:40:33;1.00;;;0.10;;
27127;SDS011;14660;49.008;8.390;2023-03-14T10:43:04;2.75;;;0.20;;
27127;SDS011;14660;49.008;8.390;2023-03-14T10:45:40;0.30;;;0.28;;
27127;SDS011;14660;49.008;8.390;2023-03-14T10:56:55;3.03;;;0.40;;
27127;SDS011;14660;49.008;8.390;2023-03-14T10:59:24;0.85;;;0.60;;
27127;SDS011;14660;49.008;8.390;2023-03-14T11:01:55;0.93;;;0.30;;
27127;SDS011;14660;49.008;8.390;2023-03-14T11:05:02;1.95;;;0.38;;
27127;SDS011;14660;49.008;8.390;2023-03-14T11:33:35;1.20;;;0.47;;
27127;SDS011;14660;49.008;8.390;2023-03-14T11:36:08;0.38;;;0.30;;
27127;SDS011;14660;49.008;8.390;2023-03-14T11:41:24;0.60;;;0.32;;
27127;SDS011;14660;49.008;8.390;2023-03-14T11:43:59;1.05;;;0.57;;
27127;SDS011;14660;49.008;8.390;2023-03-14T11:46:32;2.55;;;0.70;;
27127;SDS011;14660;49.008;8.390;2023-03-14T11:49:46;0.40;;;0.40;;
27127;SDS011;14660;49.008;8.390;2023-03-14T11:52:34;0.85;;;0.60;;
27127;SDS011;14660;49.008;8.390;2023-03-14T11:58:13;2.38;;;0.60;;
27127;SDS011;14660;49.008;8.390;2023-03-14T12:01:03;3.38;;;0.63;;
27127;SDS011;14660;49.008;8.390;2023-03-14T12:06:47;2.28;;;1.58;;
27127;SDS011;14660;49.008;8.390;2023-03-14T12:09:19;3.00;;;1.65;;
27127;SDS011;14660;49.008;8.390;2023-03-14T12:11:50;1.58;;;0.70;;
27127;SDS011;14660;49.008;8.390;2023-03-14T12:17:20;4.63;;;2.20;;
27127;SDS011;14660;49.008;8.390;2023-03-14T12:23:02;2.60;;;1.27;;
27127;SDS011;14660;49.008;8.390;2023-03-14T12:25:32;2.95;;;1.58;;
27127;SDS011;14660;49.008;8.390;2023-03-14T12:28:12;1.80;;;0.77;;
27127;SDS011;14660;49.008;8.390;2023-03-14T12:33:12;4.20;;;1.52;;
27127;SDS011;14660;49.008;8.390;2023-03-14T12:35:57;1.80;;;0.73;;
27127;SDS011;14660;49.008;8.390;2023-03-14T12:50:01;2.83;;;0.88;;
27127;SDS011;14660;49.008;8.390;2023-03-14T13:01:53;2.17;;;0.50;;
27127;SDS011;14660;49.008;8.390;2023-03-14T13:04:44;1.88;;;1.00;;
27127;SDS011;14660;49.008;8.390;2023-03-14T13:10:28;0.28;;;0.28;;
27127;SDS011;14660;49.008;8.390;2023-03-14T13:16:02;1.98;;;0.55;;
27127;SDS011;14660;49.008;8.390;2023-03-14T13:21:26;1.95;;;0.40;;
27127;SDS011;14660;49.008;8.390;2023-03-14T13:24:01;1.92;;;0.40;;
27127;SDS011;14660;49.008;8.390;2023-03-14T13:27:03;1.88;;;0.55;;
27127;SDS011;14660;49.008;8.390;2023-03-14T13:32:01;1.42;;;0.30;;
27127;SDS011;14660;49.008;8.390;2023-03-14T13:34:39;2.95;;;0.40;;
27127;SDS011;14660;49.008;8.390;2023-03-14T13:37:23;0.90;;;0.28;;
27127;SDS011;14660;49.008;8.390;2023-03-14T13:39:52;2.45;;;0.38;;
27127;SDS011;14660;49.008;8.390;2023-03-14T13:42:24;4.70;;;0.30;;
27127;SDS011;14660;49.008;8.390;2023-03-14T13:44:54;2.10;;;0.60;;
27127;SDS011;14660;49.008;8.390;2023-03-14T13:47:25;3.55;;;1.23;;
27127;SDS011;14660;49.008;8.390;2023-03-14T13:49:52;1.80;;;0.90;;
27127;SDS011;14660;49.008;8.390;2023-03-14T13:55:16;4.75;;;1.88;;
27127;SDS011;14660;49.008;8.390;2023-03-14T13:57:44;4.93;;;1.75;;
27127;SDS011;14660;49.008;8.390;2023-03-14T14:00:20;2.92;;;0.55;;
27127;SDS011;14660;49.008;8.390;2023-03-14T14:02:53;3.20;;;1.20;;
27127;SDS011;14660;49.008;8.390;2023-03-14T14:05:21;13.80;;;3.80;;
27127;SDS011;14660;49.008;8.390;2023-03-14T14:07:50;5.78;;;2.30;;
27127;SDS011;14660;49.008;8.390;2023-03-14T14:10:18;15.68;;;4.80;;
27127;SDS011;14660;49.008;8.390;2023-03-14T14:15:35;5.32;;;1.30;;
27127;SDS011;14660;49.008;8.390;2023-03-14T14:18:07;6.78;;;2.50;;
27127;SDS011;14660;49.008;8.390;2023-03-14T14:20:39;5.07;;;2.63;;
27127;SDS011;14660;49.008;8.390;2023-03-14T14:23:11;9.43;;;3.30;;
27127;SDS011;14660;49.008;8.390;2023-03-14T14:25:40;3.50;;;1.90;;
27127;SDS011;14660;49.008;8.390;2023-03-14T14:28:32;7.25;;;1.80;;
27127;SDS011;14660;49.008;8.390;2023-03-14T14:33:53;6.50;;;1.98;;
27127;SDS011;14660;49.008;8.390;2023-03-14T14:42:01;4.45;;;0.88;;
27127;SDS011;14660;49.008;8.390;2023-03-14T14:44:34;7.25;;;1.70;;
27127;SDS011;14660;49.008;8.390;2023-03-14T14:47:02;4.30;;;1.25;;
27127;SDS011;14660;49.008;8.390;2023-03-14T14:49:30;6.22;;;1.92;;
27127;SDS011;14660;49.008;8.390;2023-03-14T14:52:06;7.20;;;1.25;;
27127;SDS011;14660;49.008;8.390;2023-03-14T14:54:42;3.80;;;1.00;;
27127;SDS011;14660;49.008;8.390;2023-03-14T14:57:25;5.13;;;1.50;;
27127;SDS011;14660;49.008;8.390;2023-03-14T15:00:00;6.20;;;1.40;;
27127;SDS011;14660;49.008;8.390;2023-03-14T15:02:45;4.53;;;1.15;;
27127;SDS011;14660;49.008;8.390;2023-03-14T15:05:17;2.10;;;1.00;;
27127;SDS011;14660;49.008;8.390;2023-03-14T15:07:50;2.50;;;0.73;;
27127;SDS011;14660;49.008;8.390;2023-03-14T15:10:18;3.65;;;0.80;;
27127;SDS011;14660;49.008;8.390;2023-03-14T15:12:46;6.10;;;1.33;;
27127;SDS011;14660;49.008;8.390;2023-03-14T15:15:14;2.40;;;0.70;;
27127;SDS011;14660;49.008;8.390;2023-03-14T15:17:42;2.20;;;0.93;;
27127;SDS011;14660;49.008;8.390;2023-03-14T15:20:14;4.20;;;0.98;;
27127;SDS011;14660;49.008;8.390;2023-03-14T15:22:42;1.58;;;0.50;;
27127;SDS011;14660;49.008;8.390;2023-03-14T15:25:10;1.38;;;0.70;;
27127;SDS011;14660;49.008;8.390;2023-03-14T15:27:36;2.55;;;0.65;;
27127;SDS011;14660;49.008;8.390;2023-03-14T15:30:10;3.60;;;1.92;;
27127;SDS011;14660;49.008;8.390;2023-03-14T15:32:45;4.85;;;1.10;;
27127;SDS011;14660;49.008;8.390;2023-03-14T15:35:12;5.18;;;1.15;;
27127;SDS011;14660;49.008;8.390;2023-03-14T15:37:41;5.70;;;1.38;;
27127;SDS011;14660;49.008;8.390;2023-03-14T15:40:11;3.47;;;1.23;;
27127;SDS011;14660;49.008;8.390;2023-03-14T15:42:40;8.05;;;3.35;;
27127;SDS011;14660;49.008;8.390;2023-03-14T15:45:06;1.98;;;0.80;;
27127;SDS011;14660;49.008;8.390;2023-03-14T15:47:35;6.13;;;1.10;;
27127;SDS011;14660;49.008;8.390;2023-03-14T15:50:01;3.00;;;0.98;;
27127;SDS011;14660;49.008;8.390;2023-03-14T15:52:28;3.75;;;1.20;;
27127;SDS011;14660;49.008;8.390;2023-03-14T15:54:56;8.32;;;1.25;;
27127;SDS011;14660;49.008;8.390;2023-03-14T15:57:23;2.75;;;1.08;;
27127;SDS011;14660;49.008;8.390;2023-03-14T15:59:50;3.13;;;0.80;;
27127;SDS011;14660;49.008;8.390;2023-03-14T16:02:16;3.13;;;1.42;;
27127;SDS011;14660;49.008;8.390;2023-03-14T16:04:43;4.40;;;1.20;;
27127;SDS011;14660;49.008;8.390;2023-03-14T16:07:11;1.77;;;0.80;;
27127;SDS011;14660;49.008;8.390;2023-03-14T16:09:38;6.55;;;1.35;;
27127;SDS011;14660;49.008;8.390;2023-03-14T16:12:05;3.05;;;0.60;;
27127;SDS011;14660;49.008;8.390;2023-03-14T16:14:33;5.35;;;1.10;;
27127;SDS011;14660;49.008;8.390;2023-03-14T16:16:59;5.05;;;1.33;;
27127;SDS011;14660;49.008;8.390;2023-03-14T16:19:26;5.90;;;2.30;;
27127;SDS011;14660;49.008;8.390;2023-03-14T16:21:54;3.78;;;0.80;;
27127;SDS011;14660;49.008;8.390;2023-03-14T16:24:21;5.28;;;1.60;;
27127;SDS011;14660;49.008;8.390;2023-03-14T16:26:48;2.70;;;1.20;;
27127;SDS011;14660;49.008;8.390;2023-03-14T16:29:15;2.75;;;1.67;;
27127;SDS011;14660;49.008;8.390;2023-03-14T16:31:42;2.92;;;1.10;;
27127;SDS011;14660;49.008;8.390;2023-03-14T16:34:09;3.70;;;1.00;;
27127;SDS011;14660;49.008;8.390;2023-03-14T16:36:36;3.42;;;1.10;;
27127;SDS011;14660;49.008;8.390;2023-03-14T16:39:03;1.40;;;1.13;;
27127;SDS011;14660;49.008;8.390;2023-03-14T16:41:30;4.85;;;2.00;;
27127;SDS011;14660;49.008;8.390;2023-03-14T16:44:00;3.10;;;2.25;;
27127;SDS011;14660;49.008;8.390;2023-03-14T16:46:27;4.35;;;2.47;;
27127;SDS011;14660;49.008;8.390;2023-03-14T16:48:55;8.98;;;5.88;;
27127;SDS011;14660;49.008;8.390;2023-03-14T16:51:22;5.35;;;3.75;;
27127;SDS011;14660;49.008;8.390;2023-03-14T16:53:49;4.43;;;3.38;;
27127;SDS011;14660;49.008;8.390;2023-03-14T16:56:16;4.47;;;3.60;;
27127;SDS011;14660;49.008;8.390;2023-03-14T16:58:43;2.17;;;1.00;;
27127;SDS011;14660;49.008;8.390;2023-03-14T17:01:11;4.22;;;1.65;;
27127;SDS011;14660;49.008;8.390;2023-03-14T17:03:41;3.20;;;1.08;;
27127;SDS011;14660;49.008;8.390;2023-03-14T17:06:12;3.47;;;0.88;;
27127;SDS011;14660;49.008;8.390;2023-03-14T17:08:40;2.63;;;0.98;;
27127;SDS011;14660;49.008;8.390;2023-03-14T17:11:09;4.50;;;1.15;;
27127;SDS011;14660;49.008;8.390;2023-03-14T17:13:36;4.72;;;2.22;;
27127;SDS011;14660;49.008;8.390;2023-03-14T17:16:04;5.03;;;2.33;;